sensor_id;sensor_type;location;lat;lon;timestamp;P1;durP1;ratioP1;P2;durP2;ratioP2
20844;SDS011;10583;49.084;8.646;2023-07-09T00:01:49;5.27;;;5.27;;
20844;SDS011;10583;49.084;8.646;2023-07-09T00:04:16;5.20;;;5.20;;
20844;SDS011;10583;49.084;8.646;2023-07-09T00:06:45;4.73;;;4.73;;
20844;SDS011;10583;49.084;8.646;2023-07-09T00:09:12;5.10;;;5.10;;
20844;SDS011;10583;49.084;8.646;2023-07-09T00:11:40;4.73;;;4.73;;
20844;SDS011;10583;49.084;8.646;2023-07-09T00:14:07;5.00;;;5.00;;
20844;SDS011;10583;49.084;8.646;2023-07-09T00:16:35;5.20;;;5.20;;
20844;SDS011;10583;49.084;8.646;2023-07-09T00:19:03;4.93;;;4.93;;
20844;SDS011;10583;49.084;8.646;2023-07-09T00:21:29;5.47;;;5.47;;
20844;SDS011;10583;49.084;8.646;2023-07-09T00:24:00;4.30;;;4.30;;
20844;SDS011;10583;49.084;8.646;2023-07-09T00:26:29;4.83;;;4.83;;
20844;SDS011;10583;49.084;8.646;2023-07-09T00:28:57;5.20;;;5.20;;
20844;SDS011;10583;49.084;8.646;2023-07-09T00:31:24;5.30;;;5.30;;
20844;SDS011;10583;49.084;8.646;2023-07-09T00:33:51;5.37;;;5.37;;
20844;SDS011;10583;49.084;8.646;2023-07-09T00:36:18;4.83;;;4.83;;
20844;SDS011;10583;49.084;8.646;2023-07-09T00:38:51;4.97;;;4.97;;
20844;SDS011;10583;49.084;8.646;2023-07-09T00:41:21;4.93;;;4.93;;
20844;SDS011;10583;49.084;8.646;2023-07-09T00:43:50;5.18;;;5.18;;
20844;SDS011;10583;49.084;8.646;2023-07-09T00:49:33;5.10;;;5.10;;
20844;SDS011;10583;49.084;8.646;2023-07-09T00:52:12;4.73;;;4.73;;
20844;SDS011;10583;49.084;8.646;2023-07-09T00:54:50;6.57;;;6.57;;
20844;SDS011;10583;49.084;8.646;2023-07-09T00:57:20;5.70;;;5.70;;
20844;SDS011;10583;49.084;8.646;2023-07-09T00:59:50;5.20;;;5.20;;
20844;SDS011;10583;49.084;8.646;2023-07-09T01:02:21;4.97;;;4.97;;
20844;SDS011;10583;49.084;8.646;2023-07-09T01:04:49;5.57;;;5.57;;
20844;SDS011;10583;49.084;8.646;2023-07-09T01:07:16;5.73;;;5.73;;
20844;SDS011;10583;49.084;8.646;2023-07-09T01:09:47;5.77;;;5.77;;
20844;SDS011;10583;49.084;8.646;2023-07-09T01:12:16;5.80;;;5.80;;
20844;SDS011;10583;49.084;8.646;2023-07-09T01:14:48;6.07;;;6.00;;
20844;SDS011;10583;49.084;8.646;2023-07-09T01:17:17;5.40;;;5.40;;
20844;SDS011;10583;49.084;8.646;2023-07-09T01:19:48;5.20;;;5.20;;
20844;SDS011;10583;49.084;8.646;2023-07-09T01:22:17;5.10;;;5.10;;
20844;SDS011;10583;49.084;8.646;2023-07-09T01:24:46;5.43;;;5.43;;
20844;SDS011;10583;49.084;8.646;2023-07-09T01:27:27;5.10;;;5.10;;
20844;SDS011;10583;49.084;8.646;2023-07-09T01:29:58;5.87;;;5.87;;
20844;SDS011;10583;49.084;8.646;2023-07-09T01:32:26;5.30;;;5.30;;
20844;SDS011;10583;49.084;8.646;2023-07-09T01:34:54;5.37;;;5.37;;
20844;SDS011;10583;49.084;8.646;2023-07-09T01:37:26;5.63;;;5.63;;
20844;SDS011;10583;49.084;8.646;2023-07-09T01:39:54;5.00;;;5.00;;
20844;SDS011;10583;49.084;8.646;2023-07-09T01:42:21;5.20;;;5.20;;
20844;SDS011;10583;49.084;8.646;2023-07-09T01:44:50;4.60;;;4.60;;
20844;SDS011;10583;49.084;8.646;2023-07-09T01:47:19;5.73;;;5.73;;
20844;SDS011;10583;49.084;8.646;2023-07-09T01:49:47;5.30;;;5.30;;
20844;SDS011;10583;49.084;8.646;2023-07-09T01:52:14;5.30;;;5.30;;
20844;SDS011;10583;49.084;8.646;2023-07-09T01:54:45;5.00;;;5.00;;
20844;SDS011;10583;49.084;8.646;2023-07-09T01:57:15;5.13;;;5.13;;
20844;SDS011;10583;49.084;8.646;2023-07-09T01:59:48;5.03;;;5.03;;
20844;SDS011;10583;49.084;8.646;2023-07-09T02:02:15;5.40;;;5.40;;
20844;SDS011;10583;49.084;8.646;2023-07-09T02:04:45;5.10;;;5.10;;
20844;SDS011;10583;49.084;8.646;2023-07-09T02:07:12;5.00;;;5.00;;
20844;SDS011;10583;49.084;8.646;2023-07-09T02:09:39;5.30;;;5.30;;
20844;SDS011;10583;49.084;8.646;2023-07-09T02:12:08;4.97;;;4.97;;
20844;SDS011;10583;49.084;8.646;2023-07-09T02:14:35;4.90;;;4.90;;
20844;SDS011;10583;49.084;8.646;2023-07-09T02:17:03;5.50;;;5.50;;
20844;SDS011;10583;49.084;8.646;2023-07-09T02:19:30;6.10;;;6.10;;
20844;SDS011;10583;49.084;8.646;2023-07-09T02:21:57;5.73;;;5.73;;
20844;SDS011;10583;49.084;8.646;2023-07-09T02:24:24;5.27;;;5.27;;
20844;SDS011;10583;49.084;8.646;2023-07-09T02:26:52;5.53;;;5.53;;
20844;SDS011;10583;49.084;8.646;2023-07-09T02:29:20;5.40;;;5.40;;
20844;SDS011;10583;49.084;8.646;2023-07-09T02:31:48;4.90;;;4.90;;
20844;SDS011;10583;49.084;8.646;2023-07-09T02:34:15;5.70;;;5.70;;
20844;SDS011;10583;49.084;8.646;2023-07-09T02:36:42;5.90;;;5.90;;
20844;SDS011;10583;49.084;8.646;2023-07-09T02:39:08;4.93;;;4.93;;
20844;SDS011;10583;49.084;8.646;2023-07-09T02:41:35;5.63;;;5.63;;
20844;SDS011;10583;49.084;8.646;2023-07-09T02:44:02;4.80;;;4.80;;
20844;SDS011;10583;49.084;8.646;2023-07-09T02:46:30;5.33;;;5.33;;
20844;SDS011;10583;49.084;8.646;2023-07-09T02:48:57;5.40;;;5.40;;
20844;SDS011;10583;49.084;8.646;2023-07-09T02:51:24;5.00;;;5.00;;
20844;SDS011;10583;49.084;8.646;2023-07-09T02:53:51;5.33;;;5.33;;
20844;SDS011;10583;49.084;8.646;2023-07-09T02:56:19;5.70;;;5.70;;
20844;SDS011;10583;49.084;8.646;2023-07-09T02:58:46;5.50;;;5.50;;
20844;SDS011;10583;49.084;8.646;2023-07-09T03:01:13;5.10;;;5.10;;
20844;SDS011;10583;49.084;8.646;2023-07-09T03:03:41;5.70;;;5.70;;
20844;SDS011;10583;49.084;8.646;2023-07-09T03:06:08;5.47;;;5.47;;
20844;SDS011;10583;49.084;8.646;2023-07-09T03:08:36;5.53;;;5.53;;
20844;SDS011;10583;49.084;8.646;2023-07-09T03:11:08;5.73;;;5.73;;
20844;SDS011;10583;49.084;8.646;2023-07-09T03:13:35;5.30;;;5.30;;
20844;SDS011;10583;49.084;8.646;2023-07-09T03:16:02;5.60;;;5.60;;
20844;SDS011;10583;49.084;8.646;2023-07-09T03:18:29;5.13;;;5.13;;
20844;SDS011;10583;49.084;8.646;2023-07-09T03:20:58;5.13;;;5.13;;
20844;SDS011;10583;49.084;8.646;2023-07-09T03:23:25;5.13;;;5.13;;
20844;SDS011;10583;49.084;8.646;2023-07-09T03:25:52;5.03;;;5.03;;
20844;SDS011;10583;49.084;8.646;2023-07-09T03:28:18;4.93;;;4.93;;
20844;SDS011;10583;49.084;8.646;2023-07-09T03:30:46;5.10;;;5.10;;
20844;SDS011;10583;49.084;8.646;2023-07-09T03:33:14;5.23;;;5.23;;
20844;SDS011;10583;49.084;8.646;2023-07-09T03:35:42;4.90;;;4.90;;
20844;SDS011;10583;49.084;8.646;2023-07-09T03:38:10;4.83;;;4.83;;
20844;SDS011;10583;49.084;8.646;2023-07-09T03:40:37;5.17;;;5.17;;
20844;SDS011;10583;49.084;8.646;2023-07-09T03:43:04;4.80;;;4.80;;
20844;SDS011;10583;49.084;8.646;2023-07-09T03:45:32;5.10;;;5.10;;
20844;SDS011;10583;49.084;8.646;2023-07-09T03:47:59;5.10;;;5.10;;
20844;SDS011;10583;49.084;8.646;2023-07-09T03:50:25;4.80;;;4.80;;
20844;SDS011;10583;49.084;8.646;2023-07-09T03:52:52;5.20;;;5.20;;
20844;SDS011;10583;49.084;8.646;2023-07-09T03:55:20;4.90;;;4.90;;
20844;SDS011;10583;49.084;8.646;2023-07-09T03:57:47;5.40;;;5.40;;
20844;SDS011;10583;49.084;8.646;2023-07-09T04:00:14;4.60;;;4.60;;
20844;SDS011;10583;49.084;8.646;2023-07-09T04:02:41;4.90;;;4.90;;
20844;SDS011;10583;49.084;8.646;2023-07-09T04:05:08;4.93;;;4.93;;
20844;SDS011;10583;49.084;8.646;2023-07-09T04:07:36;5.30;;;5.30;;
20844;SDS011;10583;49.084;8.646;2023-07-09T04:10:03;5.77;;;5.77;;
20844;SDS011;10583;49.084;8.646;2023-07-09T04:12:32;5.63;;;5.63;;
20844;SDS011;10583;49.084;8.646;2023-07-09T04:14:59;5.67;;;5.67;;
20844;SDS011;10583;49.084;8.646;2023-07-09T04:17:26;5.20;;;5.20;;
20844;SDS011;10583;49.084;8.646;2023-07-09T04:19:52;5.47;;;5.47;;
20844;SDS011;10583;49.084;8.646;2023-07-09T04:22:19;5.70;;;5.70;;
20844;SDS011;10583;49.084;8.646;2023-07-09T04:24:46;5.83;;;5.83;;
20844;SDS011;10583;49.084;8.646;2023-07-09T04:27:13;5.50;;;5.50;;
20844;SDS011;10583;49.084;8.646;2023-07-09T04:29:41;5.30;;;5.30;;
20844;SDS011;10583;49.084;8.646;2023-07-09T04:32:08;5.43;;;5.43;;
20844;SDS011;10583;49.084;8.646;2023-07-09T04:34:39;5.87;;;5.87;;
20844;SDS011;10583;49.084;8.646;2023-07-09T04:37:06;5.40;;;5.40;;
20844;SDS011;10583;49.084;8.646;2023-07-09T04:39:34;5.93;;;5.93;;
20844;SDS011;10583;49.084;8.646;2023-07-09T04:42:00;5.77;;;5.77;;
20844;SDS011;10583;49.084;8.646;2023-07-09T04:44:28;5.80;;;5.80;;
20844;SDS011;10583;49.084;8.646;2023-07-09T04:46:56;5.53;;;5.53;;
20844;SDS011;10583;49.084;8.646;2023-07-09T04:49:22;5.73;;;5.73;;
20844;SDS011;10583;49.084;8.646;2023-07-09T04:51:49;5.77;;;5.77;;
20844;SDS011;10583;49.084;8.646;2023-07-09T04:54:16;5.00;;;5.00;;
20844;SDS011;10583;49.084;8.646;2023-07-09T04:56:42;5.80;;;5.80;;
20844;SDS011;10583;49.084;8.646;2023-07-09T04:59:09;5.93;;;5.93;;
20844;SDS011;10583;49.084;8.646;2023-07-09T05:01:36;6.17;;;6.17;;
20844;SDS011;10583;49.084;8.646;2023-07-09T05:04:04;5.20;;;5.20;;
20844;SDS011;10583;49.084;8.646;2023-07-09T05:06:31;5.40;;;5.40;;
20844;SDS011;10583;49.084;8.646;2023-07-09T05:08:59;6.00;;;6.00;;
20844;SDS011;10583;49.084;8.646;2023-07-09T05:11:26;5.90;;;5.90;;
20844;SDS011;10583;49.084;8.646;2023-07-09T05:13:52;5.33;;;5.33;;
20844;SDS011;10583;49.084;8.646;2023-07-09T05:16:19;5.77;;;5.77;;
20844;SDS011;10583;49.084;8.646;2023-07-09T05:18:46;5.53;;;5.53;;
20844;SDS011;10583;49.084;8.646;2023-07-09T05:21:14;6.20;;;6.20;;
20844;SDS011;10583;49.084;8.646;2023-07-09T05:23:40;5.67;;;5.67;;
20844;SDS011;10583;49.084;8.646;2023-07-09T05:26:07;5.77;;;5.77;;
20844;SDS011;10583;49.084;8.646;2023-07-09T05:28:35;6.00;;;6.00;;
20844;SDS011;10583;49.084;8.646;2023-07-09T05:31:03;5.60;;;5.60;;
20844;SDS011;10583;49.084;8.646;2023-07-09T05:33:30;5.80;;;5.80;;
20844;SDS011;10583;49.084;8.646;2023-07-09T05:35:57;5.55;;;5.55;;
20844;SDS011;10583;49.084;8.646;2023-07-09T05:38:25;5.90;;;5.90;;
20844;SDS011;10583;49.084;8.646;2023-07-09T05:40:59;5.72;;;5.72;;
20844;SDS011;10583;49.084;8.646;2023-07-09T05:43:26;6.10;;;6.10;;
20844;SDS011;10583;49.084;8.646;2023-07-09T05:45:53;5.85;;;5.85;;
20844;SDS011;10583;49.084;8.646;2023-07-09T05:48:19;5.18;;;5.18;;
20844;SDS011;10583;49.084;8.646;2023-07-09T05:50:47;5.70;;;5.70;;
20844;SDS011;10583;49.084;8.646;2023-07-09T05:53:14;5.63;;;5.63;;
20844;SDS011;10583;49.084;8.646;2023-07-09T05:55:42;5.45;;;5.45;;
20844;SDS011;10583;49.084;8.646;2023-07-09T05:58:09;5.70;;;5.70;;
20844;SDS011;10583;49.084;8.646;2023-07-09T06:00:36;5.30;;;5.30;;
20844;SDS011;10583;49.084;8.646;2023-07-09T06:03:06;5.43;;;5.43;;
20844;SDS011;10583;49.084;8.646;2023-07-09T06:05:33;5.53;;;5.53;;
20844;SDS011;10583;49.084;8.646;2023-07-09T06:07:59;6.00;;;6.00;;
20844;SDS011;10583;49.084;8.646;2023-07-09T06:10:26;5.35;;;5.35;;
20844;SDS011;10583;49.084;8.646;2023-07-09T06:12:54;6.03;;;6.03;;
20844;SDS011;10583;49.084;8.646;2023-07-09T06:15:23;5.72;;;5.72;;
20844;SDS011;10583;49.084;8.646;2023-07-09T06:17:50;5.15;;;5.15;;
20844;SDS011;10583;49.084;8.646;2023-07-09T06:20:17;4.90;;;4.90;;
20844;SDS011;10583;49.084;8.646;2023-07-09T06:22:44;4.85;;;4.85;;
20844;SDS011;10583;49.084;8.646;2023-07-09T06:25:10;5.25;;;5.25;;
20844;SDS011;10583;49.084;8.646;2023-07-09T06:27:37;4.65;;;4.65;;
20844;SDS011;10583;49.084;8.646;2023-07-09T06:30:06;4.93;;;4.93;;
20844;SDS011;10583;49.084;8.646;2023-07-09T06:32:34;4.82;;;4.82;;
20844;SDS011;10583;49.084;8.646;2023-07-09T06:35:00;4.65;;;4.65;;
20844;SDS011;10583;49.084;8.646;2023-07-09T06:37:27;5.47;;;5.47;;
20844;SDS011;10583;49.084;8.646;2023-07-09T06:39:54;4.88;;;4.88;;
20844;SDS011;10583;49.084;8.646;2023-07-09T06:42:20;4.80;;;4.80;;
20844;SDS011;10583;49.084;8.646;2023-07-09T06:44:47;4.70;;;4.70;;
20844;SDS011;10583;49.084;8.646;2023-07-09T06:47:15;4.47;;;4.47;;
20844;SDS011;10583;49.084;8.646;2023-07-09T06:49:42;4.82;;;4.82;;
20844;SDS011;10583;49.084;8.646;2023-07-09T06:52:08;4.78;;;4.78;;
20844;SDS011;10583;49.084;8.646;2023-07-09T06:54:35;4.90;;;4.90;;
20844;SDS011;10583;49.084;8.646;2023-07-09T06:57:02;4.78;;;4.78;;
20844;SDS011;10583;49.084;8.646;2023-07-09T06:59:29;5.28;;;5.28;;
20844;SDS011;10583;49.084;8.646;2023-07-09T07:01:56;5.03;;;5.03;;
20844;SDS011;10583;49.084;8.646;2023-07-09T07:04:24;4.85;;;4.85;;
20844;SDS011;10583;49.084;8.646;2023-07-09T07:06:51;4.40;;;4.40;;
20844;SDS011;10583;49.084;8.646;2023-07-09T07:09:20;4.40;;;4.40;;
20844;SDS011;10583;49.084;8.646;2023-07-09T07:11:47;4.60;;;4.60;;
20844;SDS011;10583;49.084;8.646;2023-07-09T07:14:15;4.30;;;4.30;;
20844;SDS011;10583;49.084;8.646;2023-07-09T07:16:42;4.10;;;4.10;;
20844;SDS011;10583;49.084;8.646;2023-07-09T07:19:08;4.30;;;4.30;;
20844;SDS011;10583;49.084;8.646;2023-07-09T07:21:37;4.32;;;4.32;;
20844;SDS011;10583;49.084;8.646;2023-07-09T07:24:04;4.32;;;4.32;;
20844;SDS011;10583;49.084;8.646;2023-07-09T07:26:31;4.50;;;4.50;;
20844;SDS011;10583;49.084;8.646;2023-07-09T07:28:57;4.65;;;4.65;;
20844;SDS011;10583;49.084;8.646;2023-07-09T07:31:24;4.68;;;4.68;;
20844;SDS011;10583;49.084;8.646;2023-07-09T07:33:51;4.10;;;4.10;;
20844;SDS011;10583;49.084;8.646;2023-07-09T07:36:17;4.40;;;4.40;;
20844;SDS011;10583;49.084;8.646;2023-07-09T07:38:45;4.18;;;4.18;;
20844;SDS011;10583;49.084;8.646;2023-07-09T07:41:12;4.95;;;4.95;;
20844;SDS011;10583;49.084;8.646;2023-07-09T07:43:39;4.50;;;4.50;;
20844;SDS011;10583;49.084;8.646;2023-07-09T07:46:05;4.75;;;4.75;;
20844;SDS011;10583;49.084;8.646;2023-07-09T07:48:32;4.70;;;4.70;;
20844;SDS011;10583;49.084;8.646;2023-07-09T07:50:59;3.85;;;3.85;;
20844;SDS011;10583;49.084;8.646;2023-07-09T07:53:26;4.22;;;4.22;;
20844;SDS011;10583;49.084;8.646;2023-07-09T07:55:55;4.45;;;4.45;;
20844;SDS011;10583;49.084;8.646;2023-07-09T07:58:22;4.60;;;4.60;;
20844;SDS011;10583;49.084;8.646;2023-07-09T08:00:49;4.15;;;4.15;;
20844;SDS011;10583;49.084;8.646;2023-07-09T08:03:20;4.03;;;4.03;;
20844;SDS011;10583;49.084;8.646;2023-07-09T08:05:48;4.40;;;4.40;;
20844;SDS011;10583;49.084;8.646;2023-07-09T08:08:15;4.43;;;4.43;;
20844;SDS011;10583;49.084;8.646;2023-07-09T08:10:42;4.38;;;4.38;;
20844;SDS011;10583;49.084;8.646;2023-07-09T08:13:10;4.35;;;4.35;;
20844;SDS011;10583;49.084;8.646;2023-07-09T08:15:38;4.60;;;4.60;;
20844;SDS011;10583;49.084;8.646;2023-07-09T08:18:05;4.55;;;4.55;;
20844;SDS011;10583;49.084;8.646;2023-07-09T08:20:36;4.80;;;4.80;;
20844;SDS011;10583;49.084;8.646;2023-07-09T08:23:12;4.63;;;4.63;;
20844;SDS011;10583;49.084;8.646;2023-07-09T08:25:39;4.55;;;4.55;;
20844;SDS011;10583;49.084;8.646;2023-07-09T08:28:06;4.50;;;4.50;;
20844;SDS011;10583;49.084;8.646;2023-07-09T08:30:34;4.13;;;4.13;;
20844;SDS011;10583;49.084;8.646;2023-07-09T08:33:02;3.80;;;3.80;;
20844;SDS011;10583;49.084;8.646;2023-07-09T08:35:28;4.35;;;4.35;;
20844;SDS011;10583;49.084;8.646;2023-07-09T08:37:57;4.30;;;4.30;;
20844;SDS011;10583;49.084;8.646;2023-07-09T08:40:23;4.07;;;4.07;;
20844;SDS011;10583;49.084;8.646;2023-07-09T08:42:51;3.97;;;3.97;;
20844;SDS011;10583;49.084;8.646;2023-07-09T08:45:27;3.97;;;3.97;;
20844;SDS011;10583;49.084;8.646;2023-07-09T08:48:03;3.70;;;3.70;;
20844;SDS011;10583;49.084;8.646;2023-07-09T08:50:35;4.28;;;4.28;;
20844;SDS011;10583;49.084;8.646;2023-07-09T08:53:04;3.55;;;3.55;;
20844;SDS011;10583;49.084;8.646;2023-07-09T08:55:35;3.65;;;3.65;;
20844;SDS011;10583;49.084;8.646;2023-07-09T08:58:09;3.65;;;3.65;;
20844;SDS011;10583;49.084;8.646;2023-07-09T09:00:51;3.70;;;3.70;;
20844;SDS011;10583;49.084;8.646;2023-07-09T09:03:25;4.28;;;4.28;;
20844;SDS011;10583;49.084;8.646;2023-07-09T09:05:55;3.85;;;3.85;;
20844;SDS011;10583;49.084;8.646;2023-07-09T09:08:25;3.60;;;3.60;;
20844;SDS011;10583;49.084;8.646;2023-07-09T09:11:00;4.25;;;4.25;;
20844;SDS011;10583;49.084;8.646;2023-07-09T09:13:34;4.10;;;4.10;;
20844;SDS011;10583;49.084;8.646;2023-07-09T09:16:05;3.63;;;3.63;;
20844;SDS011;10583;49.084;8.646;2023-07-09T09:18:40;3.88;;;3.88;;
20844;SDS011;10583;49.084;8.646;2023-07-09T09:21:11;3.58;;;3.58;;
20844;SDS011;10583;49.084;8.646;2023-07-09T09:23:44;3.70;;;3.70;;
20844;SDS011;10583;49.084;8.646;2023-07-09T09:26:15;3.67;;;3.67;;
20844;SDS011;10583;49.084;8.646;2023-07-09T09:28:44;3.28;;;3.28;;
20844;SDS011;10583;49.084;8.646;2023-07-09T09:31:13;3.53;;;3.53;;
20844;SDS011;10583;49.084;8.646;2023-07-09T09:33:41;3.53;;;3.53;;
20844;SDS011;10583;49.084;8.646;2023-07-09T09:36:14;3.95;;;3.95;;
20844;SDS011;10583;49.084;8.646;2023-07-09T09:38:42;3.38;;;3.38;;
20844;SDS011;10583;49.084;8.646;2023-07-09T09:41:12;3.97;;;3.97;;
20844;SDS011;10583;49.084;8.646;2023-07-09T09:43:41;3.80;;;3.80;;
20844;SDS011;10583;49.084;8.646;2023-07-09T09:46:15;3.63;;;3.63;;
20844;SDS011;10583;49.084;8.646;2023-07-09T09:48:44;3.63;;;3.63;;
20844;SDS011;10583;49.084;8.646;2023-07-09T09:51:12;3.63;;;3.63;;
20844;SDS011;10583;49.084;8.646;2023-07-09T09:53:40;4.30;;;4.30;;
20844;SDS011;10583;49.084;8.646;2023-07-09T09:56:11;3.70;;;3.70;;
20844;SDS011;10583;49.084;8.646;2023-07-09T09:58:43;3.60;;;3.60;;
20844;SDS011;10583;49.084;8.646;2023-07-09T10:01:15;4.20;;;4.20;;
20844;SDS011;10583;49.084;8.646;2023-07-09T10:03:46;3.83;;;3.83;;
20844;SDS011;10583;49.084;8.646;2023-07-09T10:06:16;3.78;;;3.78;;
20844;SDS011;10583;49.084;8.646;2023-07-09T10:08:49;3.78;;;3.78;;
20844;SDS011;10583;49.084;8.646;2023-07-09T10:11:23;3.70;;;3.70;;
20844;SDS011;10583;49.084;8.646;2023-07-09T10:13:58;4.13;;;4.13;;
20844;SDS011;10583;49.084;8.646;2023-07-09T10:16:31;3.92;;;3.92;;
20844;SDS011;10583;49.084;8.646;2023-07-09T10:19:04;4.00;;;4.00;;
20844;SDS011;10583;49.084;8.646;2023-07-09T10:21:40;4.05;;;4.05;;
20844;SDS011;10583;49.084;8.646;2023-07-09T10:24:13;3.65;;;3.65;;
20844;SDS011;10583;49.084;8.646;2023-07-09T10:27:00;3.88;;;3.88;;
20844;SDS011;10583;49.084;8.646;2023-07-09T10:29:36;3.92;;;3.92;;
20844;SDS011;10583;49.084;8.646;2023-07-09T10:32:23;3.80;;;3.80;;
20844;SDS011;10583;49.084;8.646;2023-07-09T10:35:00;3.40;;;3.40;;
20844;SDS011;10583;49.084;8.646;2023-07-09T10:37:42;3.65;;;3.65;;
20844;SDS011;10583;49.084;8.646;2023-07-09T10:40:23;3.45;;;3.45;;
20844;SDS011;10583;49.084;8.646;2023-07-09T10:42:55;3.60;;;3.60;;
20844;SDS011;10583;49.084;8.646;2023-07-09T10:45:29;3.00;;;3.00;;
20844;SDS011;10583;49.084;8.646;2023-07-09T10:48:03;3.60;;;3.60;;
20844;SDS011;10583;49.084;8.646;2023-07-09T10:50:36;3.80;;;3.80;;
20844;SDS011;10583;49.084;8.646;2023-07-09T10:53:09;3.50;;;3.50;;
20844;SDS011;10583;49.084;8.646;2023-07-09T10:56:10;3.40;;;3.40;;
20844;SDS011;10583;49.084;8.646;2023-07-09T10:58:32;3.90;;;3.90;;
20844;SDS011;10583;49.084;8.646;2023-07-09T11:01:01;3.20;;;3.20;;
20844;SDS011;10583;49.084;8.646;2023-07-09T11:03:34;3.53;;;3.53;;
20844;SDS011;10583;49.084;8.646;2023-07-09T11:06:05;3.70;;;3.70;;
20844;SDS011;10583;49.084;8.646;2023-07-09T11:08:39;3.45;;;3.45;;
20844;SDS011;10583;49.084;8.646;2023-07-09T11:11:08;3.40;;;3.40;;
20844;SDS011;10583;49.084;8.646;2023-07-09T11:13:40;3.10;;;3.10;;
20844;SDS011;10583;49.084;8.646;2023-07-09T11:16:12;3.38;;;3.38;;
20844;SDS011;10583;49.084;8.646;2023-07-09T11:18:52;3.40;;;3.40;;
20844;SDS011;10583;49.084;8.646;2023-07-09T11:21:22;3.65;;;3.65;;
20844;SDS011;10583;49.084;8.646;2023-07-09T11:23:49;3.70;;;3.70;;
20844;SDS011;10583;49.084;8.646;2023-07-09T11:26:22;3.45;;;3.45;;
20844;SDS011;10583;49.084;8.646;2023-07-09T11:28:51;3.60;;;3.60;;
20844;SDS011;10583;49.084;8.646;2023-07-09T11:31:23;3.25;;;3.25;;
20844;SDS011;10583;49.084;8.646;2023-07-09T11:34:02;3.80;;;3.80;;
20844;SDS011;10583;49.084;8.646;2023-07-09T11:36:35;3.38;;;3.38;;
20844;SDS011;10583;49.084;8.646;2023-07-09T11:39:17;3.40;;;3.40;;
20844;SDS011;10583;49.084;8.646;2023-07-09T11:41:46;3.53;;;3.53;;
20844;SDS011;10583;49.084;8.646;2023-07-09T11:44:15;3.83;;;3.83;;
20844;SDS011;10583;49.084;8.646;2023-07-09T11:46:48;3.70;;;3.70;;
20844;SDS011;10583;49.084;8.646;2023-07-09T11:49:23;3.70;;;3.70;;
20844;SDS011;10583;49.084;8.646;2023-07-09T11:51:54;3.63;;;3.63;;
20844;SDS011;10583;49.084;8.646;2023-07-09T11:54:33;3.80;;;3.80;;
20844;SDS011;10583;49.084;8.646;2023-07-09T11:57:00;4.00;;;4.00;;
20844;SDS011;10583;49.084;8.646;2023-07-09T11:59:28;4.15;;;4.15;;
20844;SDS011;10583;49.084;8.646;2023-07-09T12:01:55;3.53;;;3.53;;
20844;SDS011;10583;49.084;8.646;2023-07-09T12:04:30;3.83;;;3.83;;
20844;SDS011;10583;49.084;8.646;2023-07-09T12:06:59;3.72;;;3.72;;
20844;SDS011;10583;49.084;8.646;2023-07-09T12:09:30;3.90;;;3.90;;
20844;SDS011;10583;49.084;8.646;2023-07-09T12:12:03;3.53;;;3.53;;
20844;SDS011;10583;49.084;8.646;2023-07-09T12:14:30;3.53;;;3.53;;
20844;SDS011;10583;49.084;8.646;2023-07-09T12:16:57;3.63;;;3.63;;
20844;SDS011;10583;49.084;8.646;2023-07-09T12:19:24;3.40;;;3.40;;
20844;SDS011;10583;49.084;8.646;2023-07-09T12:21:58;3.55;;;3.55;;
20844;SDS011;10583;49.084;8.646;2023-07-09T12:24:26;3.58;;;3.58;;
20844;SDS011;10583;49.084;8.646;2023-07-09T12:26:54;3.72;;;3.72;;
20844;SDS011;10583;49.084;8.646;2023-07-09T12:29:23;3.83;;;3.83;;
20844;SDS011;10583;49.084;8.646;2023-07-09T12:31:51;3.47;;;3.47;;
20844;SDS011;10583;49.084;8.646;2023-07-09T12:34:18;3.60;;;3.60;;
20844;SDS011;10583;49.084;8.646;2023-07-09T12:36:46;3.33;;;3.33;;
20844;SDS011;10583;49.084;8.646;2023-07-09T12:39:16;3.80;;;3.80;;
20844;SDS011;10583;49.084;8.646;2023-07-09T12:41:48;3.70;;;3.70;;
20844;SDS011;10583;49.084;8.646;2023-07-09T12:44:16;3.90;;;3.90;;
20844;SDS011;10583;49.084;8.646;2023-07-09T12:46:45;3.45;;;3.45;;
20844;SDS011;10583;49.084;8.646;2023-07-09T12:49:18;3.13;;;3.13;;
20844;SDS011;10583;49.084;8.646;2023-07-09T12:51:48;4.28;;;4.28;;
20844;SDS011;10583;49.084;8.646;2023-07-09T12:54:17;3.92;;;3.92;;
20844;SDS011;10583;49.084;8.646;2023-07-09T12:56:46;3.67;;;3.67;;
20844;SDS011;10583;49.084;8.646;2023-07-09T12:59:17;3.47;;;3.47;;
20844;SDS011;10583;49.084;8.646;2023-07-09T13:01:48;3.88;;;3.88;;
20844;SDS011;10583;49.084;8.646;2023-07-09T13:04:17;3.72;;;3.72;;
20844;SDS011;10583;49.084;8.646;2023-07-09T13:06:44;3.28;;;3.28;;
20844;SDS011;10583;49.084;8.646;2023-07-09T13:09:14;3.50;;;3.50;;
20844;SDS011;10583;49.084;8.646;2023-07-09T13:11:47;3.53;;;3.53;;
20844;SDS011;10583;49.084;8.646;2023-07-09T13:14:16;3.70;;;3.70;;
20844;SDS011;10583;49.084;8.646;2023-07-09T13:16:45;3.50;;;3.50;;
20844;SDS011;10583;49.084;8.646;2023-07-09T13:19:12;3.80;;;3.80;;
20844;SDS011;10583;49.084;8.646;2023-07-09T13:21:39;3.63;;;3.63;;
20844;SDS011;10583;49.084;8.646;2023-07-09T13:24:09;3.45;;;3.45;;
20844;SDS011;10583;49.084;8.646;2023-07-09T13:26:41;3.45;;;3.45;;
20844;SDS011;10583;49.084;8.646;2023-07-09T13:29:11;3.75;;;3.75;;
20844;SDS011;10583;49.084;8.646;2023-07-09T13:31:42;3.40;;;3.40;;
20844;SDS011;10583;49.084;8.646;2023-07-09T13:34:13;3.40;;;3.40;;
20844;SDS011;10583;49.084;8.646;2023-07-09T13:36:44;3.72;;;3.72;;
20844;SDS011;10583;49.084;8.646;2023-07-09T13:39:11;3.72;;;3.72;;
20844;SDS011;10583;49.084;8.646;2023-07-09T13:41:39;3.38;;;3.38;;
20844;SDS011;10583;49.084;8.646;2023-07-09T13:44:10;3.40;;;3.40;;
20844;SDS011;10583;49.084;8.646;2023-07-09T13:46:38;3.92;;;3.92;;
20844;SDS011;10583;49.084;8.646;2023-07-09T13:49:07;3.55;;;3.55;;
20844;SDS011;10583;49.084;8.646;2023-07-09T13:51:35;3.53;;;3.53;;
20844;SDS011;10583;49.084;8.646;2023-07-09T13:54:05;3.70;;;3.70;;
20844;SDS011;10583;49.084;8.646;2023-07-09T13:56:38;3.95;;;3.95;;
20844;SDS011;10583;49.084;8.646;2023-07-09T13:59:05;3.40;;;3.40;;
20844;SDS011;10583;49.084;8.646;2023-07-09T14:01:38;3.50;;;3.50;;
20844;SDS011;10583;49.084;8.646;2023-07-09T14:04:05;3.50;;;3.50;;
20844;SDS011;10583;49.084;8.646;2023-07-09T14:06:35;3.05;;;3.05;;
20844;SDS011;10583;49.084;8.646;2023-07-09T14:09:02;3.50;;;3.50;;
20844;SDS011;10583;49.084;8.646;2023-07-09T14:11:29;3.15;;;3.15;;
20844;SDS011;10583;49.084;8.646;2023-07-09T14:13:56;3.25;;;3.25;;
20844;SDS011;10583;49.084;8.646;2023-07-09T14:16:23;3.63;;;3.63;;
20844;SDS011;10583;49.084;8.646;2023-07-09T14:18:51;3.70;;;3.70;;
20844;SDS011;10583;49.084;8.646;2023-07-09T14:21:18;3.55;;;3.55;;
20844;SDS011;10583;49.084;8.646;2023-07-09T14:23:48;3.70;;;3.70;;
20844;SDS011;10583;49.084;8.646;2023-07-09T14:26:15;4.00;;;4.00;;
20844;SDS011;10583;49.084;8.646;2023-07-09T14:28:42;3.67;;;3.67;;
20844;SDS011;10583;49.084;8.646;2023-07-09T14:31:13;3.63;;;3.63;;
20844;SDS011;10583;49.084;8.646;2023-07-09T14:33:45;3.42;;;3.42;;
20844;SDS011;10583;49.084;8.646;2023-07-09T14:36:13;4.22;;;4.22;;
20844;SDS011;10583;49.084;8.646;2023-07-09T14:38:40;4.10;;;4.10;;
20844;SDS011;10583;49.084;8.646;2023-07-09T14:41:10;3.95;;;3.95;;
20844;SDS011;10583;49.084;8.646;2023-07-09T14:43:45;4.05;;;4.05;;
20844;SDS011;10583;49.084;8.646;2023-07-09T14:46:12;4.32;;;4.32;;
20844;SDS011;10583;49.084;8.646;2023-07-09T14:48:38;4.28;;;4.28;;
20844;SDS011;10583;49.084;8.646;2023-07-09T14:51:07;3.97;;;3.97;;
20844;SDS011;10583;49.084;8.646;2023-07-09T14:53:39;3.40;;;3.40;;
20844;SDS011;10583;49.084;8.646;2023-07-09T14:56:06;3.60;;;3.60;;
20844;SDS011;10583;49.084;8.646;2023-07-09T14:58:33;3.92;;;3.92;;
20844;SDS011;10583;49.084;8.646;2023-07-09T15:01:00;4.07;;;4.07;;
20844;SDS011;10583;49.084;8.646;2023-07-09T15:03:27;3.50;;;3.50;;